Time;durP1;ratioP1;P1;durP2;ratioP2;P2;SDS_P1;SDS_P2;PMS_P1;PMS_P2;Temp;Humidity;BMP_temperature;BMP_pressure;BME280_temperature;BME280_humidity;BME280_pressure;Samples;Min_cycle;Max_cycle;Signal;HPM_P1;HPM_P2
2023/12/14 00:00:28;;;;;;;16.63;9.40;;;4.80;99.90;;;;;;5010149;28;20041;-45
2023/12/14 00:02:54;;;;;;;16.42;9.23;;;4.80;99.90;;;;;;5009500;28;20501;-42
2023/12/14 00:05:20;;;;;;;16.15;8.48;;;4.80;99.90;;;;;;4990749;28;20058;-45
2023/12/14 00:07:45;;;;;;;16.08;9.30;;;4.80;99.90;;;;;;5009866;28;20083;-44
2023/12/14 00:10:12;;;;;;;17.15;9.93;;;4.80;99.90;;;;;;5009779;28;20643;-42
2023/12/14 00:12:38;;;;;;;14.90;9.13;;;4.80;99.90;;;;;;5009649;28;20052;-42
2023/12/14 00:15:04;;;;;;;14.93;8.98;;;4.70;99.90;;;;;;5008637;28;20036;-43
2023/12/14 00:17:30;;;;;;;20.08;9.45;;;4.70;99.90;;;;;;5010255;28;20034;-41
2023/12/14 00:19:55;;;;;;;16.92;9.45;;;4.70;99.90;;;;;;5005919;28;20026;-46
2023/12/14 00:22:21;;;;;;;17.63;9.90;;;4.70;99.90;;;;;;5008036;28;20022;-44
2023/12/14 00:24:46;;;;;;;16.40;8.68;;;4.70;99.90;;;;;;5008306;28;20030;-43
2023/12/14 00:27:12;;;;;;;16.77;9.07;;;4.60;99.90;;;;;;5009955;28;20033;-44
2023/12/14 00:29:38;;;;;;;14.95;8.73;;;4.70;99.90;;;;;;5009308;28;20223;-43
2023/12/14 00:32:04;;;;;;;14.65;8.85;;;4.70;99.90;;;;;;5010045;28;20022;-42
2023/12/14 00:34:29;;;;;;;14.18;9.02;;;4.70;99.90;;;;;;5008789;28;20085;-42
2023/12/14 00:36:55;;;;;;;14.88;8.73;;;4.60;99.90;;;;;;5009387;28;20029;-43
2023/12/14 00:39:20;;;;;;;16.23;9.65;;;4.60;99.90;;;;;;5009067;28;20082;-42
2023/12/14 00:41:46;;;;;;;16.20;9.18;;;4.60;99.90;;;;;;5008967;28;20476;-42
2023/12/14 00:44:11;;;;;;;15.35;9.63;;;4.60;99.90;;;;;;5008951;28;20022;-42
2023/12/14 00:46:37;;;;;;;16.83;8.68;;;4.60;99.90;;;;;;5008844;28;20030;-42
2023/12/14 00:49:03;;;;;;;13.77;8.60;;;4.70;99.90;;;;;;5009185;28;20026;-43
2023/12/14 00:51:28;;;;;;;16.33;9.60;;;4.60;99.90;;;;;;5009075;28;20029;-42
2023/12/14 00:53:54;;;;;;;13.65;8.75;;;4.60;99.90;;;;;;5009027;28;20025;-43
2023/12/14 00:56:20;;;;;;;15.48;9.88;;;4.60;99.90;;;;;;5008037;28;20404;-44
2023/12/14 00:58:45;;;;;;;15.02;9.35;;;4.70;99.90;;;;;;5008472;28;20396;-43
2023/12/14 01:01:11;;;;;;;14.80;9.13;;;4.70;99.90;;;;;;5008836;28;20028;-43
2023/12/14 01:03:36;;;;;;;14.85;8.82;;;4.70;99.90;;;;;;5008387;28;20029;-46
2023/12/14 01:06:02;;;;;;;13.98;8.45;;;4.70;99.90;;;;;;5007821;28;20022;-42
2023/12/14 01:08:28;;;;;;;15.85;9.77;;;4.70;99.90;;;;;;5010204;28;20483;-42
2023/12/14 01:10:53;;;;;;;13.30;8.38;;;4.70;99.90;;;;;;5008342;28;20539;-42
2023/12/14 01:13:19;;;;;;;19.30;9.82;;;4.70;99.90;;;;;;5008447;28;20070;-44
2023/12/14 01:15:44;;;;;;;14.98;8.82;;;4.70;99.90;;;;;;5007781;28;20056;-44
2023/12/14 01:18:10;;;;;;;12.65;8.68;;;4.60;99.90;;;;;;5007978;28;20036;-43
2023/12/14 01:20:36;;;;;;;14.95;9.48;;;4.60;99.90;;;;;;5006397;28;21090;-43
2023/12/14 01:23:01;;;;;;;16.50;9.27;;;4.60;99.90;;;;;;5007314;28;20018;-46
2023/12/14 01:25:27;;;;;;;13.73;9.60;;;4.60;99.90;;;;;;5006940;28;20479;-44
2023/12/14 01:27:52;;;;;;;16.13;9.65;;;4.60;99.90;;;;;;5008977;28;20575;-43
2023/12/14 01:30:18;;;;;;;16.17;9.50;;;4.60;99.90;;;;;;5007947;28;20034;-44
2023/12/14 01:32:44;;;;;;;13.05;8.88;;;4.60;99.90;;;;;;5009995;28;20546;-43
2023/12/14 01:35:10;;;;;;;14.35;9.02;;;4.60;99.90;;;;;;5006954;28;20435;-43
2023/12/14 01:37:35;;;;;;;16.10;9.27;;;4.50;99.90;;;;;;5006362;28;20064;-44
2023/12/14 01:40:01;;;;;;;13.63;8.48;;;4.60;99.90;;;;;;5008174;28;20041;-42
2023/12/14 01:42:27;;;;;;;15.18;8.82;;;4.60;99.90;;;;;;5008594;28;20163;-43
2023/12/14 01:44:52;;;;;;;14.60;9.30;;;4.40;99.90;;;;;;5008004;28;20029;-43
2023/12/14 01:47:18;;;;;;;14.45;9.68;;;4.50;99.90;;;;;;5008625;28;20032;-43
2023/12/14 01:49:43;;;;;;;13.25;9.27;;;4.50;99.90;;;;;;5008150;28;20018;-42
2023/12/14 01:52:09;;;;;;;14.93;9.35;;;4.40;99.90;;;;;;5008556;28;20109;-43
2023/12/14 01:54:34;;;;;;;15.13;10.15;;;4.40;99.90;;;;;;5007999;28;20094;-45
2023/12/14 01:57:00;;;;;;;16.30;10.18;;;4.40;99.90;;;;;;5008107;28;20471;-45
2023/12/14 01:59:26;;;;;;;16.25;8.95;;;4.40;99.90;;;;;;5008721;28;20022;-44
2023/12/14 02:01:56;;;;;;;13.85;9.18;;;4.40;99.90;;;;;;5007826;28;20048;-42
2023/12/14 02:04:25;;;;;;;16.10;10.15;;;4.40;99.90;;;;;;5005307;28;20022;-44
2023/12/14 02:06:51;;;;;;;15.57;9.73;;;4.30;99.90;;;;;;5007811;28;20068;-42
2023/12/14 02:09:16;;;;;;;15.77;9.18;;;4.40;99.90;;;;;;5008657;28;20014;-45
2023/12/14 02:11:42;;;;;;;12.43;8.50;;;4.30;99.90;;;;;;5007645;28;20026;-42
2023/12/14 02:14:11;;;;;;;15.85;8.07;;;4.30;99.90;;;;;;5007803;28;20026;-43
2023/12/14 02:16:38;;;;;;;13.77;8.50;;;4.30;99.90;;;;;;4992167;28;20617;-45
2023/12/14 02:19:04;;;;;;;14.73;7.43;;;4.30;99.90;;;;;;4994122;28;20034;-42
2023/12/14 02:21:30;;;;;;;15.63;8.50;;;4.40;99.90;;;;;;5008486;28;20022;-43
2023/12/14 02:23:56;;;;;;;15.25;9.60;;;4.30;99.90;;;;;;5008164;28;20046;-45
2023/12/14 02:26:21;;;;;;;12.70;8.10;;;4.30;99.90;;;;;;4993458;28;20018;-43
2023/12/14 02:28:47;;;;;;;11.23;7.43;;;4.30;99.90;;;;;;5008235;28;20030;-41
2023/12/14 02:31:12;;;;;;;12.55;7.72;;;4.30;99.90;;;;;;5010094;28;20401;-43
2023/12/14 02:33:38;;;;;;;11.63;7.90;;;4.30;99.90;;;;;;5007792;28;20456;-43
2023/12/14 02:36:04;;;;;;;10.38;7.28;;;4.30;99.90;;;;;;5008550;28;20583;-46
2023/12/14 02:38:30;;;;;;;12.93;6.90;;;4.30;99.90;;;;;;5010180;28;20038;-44
2023/12/14 02:40:55;;;;;;;9.60;6.82;;;4.30;99.90;;;;;;5010997;28;20054;-43
2023/12/14 02:43:23;;;;;;;12.18;7.03;;;4.30;99.90;;;;;;5011116;28;20022;-47
2023/12/14 02:45:49;;;;;;;15.10;7.50;;;4.20;99.90;;;;;;5009265;28;20049;-42
2023/12/14 02:48:15;;;;;;;12.20;7.75;;;4.20;99.90;;;;;;5010455;28;20018;-42
2023/12/14 02:50:40;;;;;;;14.45;8.27;;;4.20;99.90;;;;;;5010829;28;20018;-44
2023/12/14 02:53:06;;;;;;;11.75;7.95;;;4.20;99.90;;;;;;5010931;28;20029;-42
2023/12/14 02:55:31;;;;;;;9.93;6.60;;;4.20;99.90;;;;;;5010459;28;20077;-45
2023/12/14 02:57:57;;;;;;;11.73;6.75;;;4.30;99.90;;;;;;4993270;28;20120;-42
2023/12/14 03:00:23;;;;;;;8.82;6.60;;;4.30;99.90;;;;;;5010693;28;20022;-42
2023/12/14 03:02:48;;;;;;;9.93;6.25;;;4.20;99.90;;;;;;5010518;28;20029;-44
2023/12/14 03:05:14;;;;;;;10.98;6.55;;;4.10;99.90;;;;;;5010258;28;20018;-44
2023/12/14 03:07:40;;;;;;;9.02;6.32;;;4.20;99.90;;;;;;5010682;28;20581;-41
2023/12/14 03:10:07;;;;;;;11.18;7.93;;;4.20;99.90;;;;;;5009475;28;20475;-43
2023/12/14 03:12:32;;;;;;;10.55;7.10;;;4.10;99.90;;;;;;5010069;28;20072;-42
2023/12/14 03:14:58;;;;;;;8.70;6.13;;;4.10;99.90;;;;;;5009343;28;20477;-44
2023/12/14 03:17:23;;;;;;;7.78;6.00;;;4.10;99.90;;;;;;5009064;28;20025;-44
2023/12/14 03:19:49;;;;;;;11.52;7.18;;;4.20;99.90;;;;;;5009085;28;20077;-42
2023/12/14 03:22:15;;;;;;;12.75;7.00;;;4.20;99.90;;;;;;4990311;28;20022;-44
2023/12/14 03:24:40;;;;;;;15.38;6.63;;;4.20;99.90;;;;;;5007380;28;20033;-42
2023/12/14 03:27:06;;;;;;;11.18;7.07;;;4.20;99.90;;;;;;4992269;28;20030;-44
2023/12/14 03:29:31;;;;;;;10.68;7.25;;;4.20;99.90;;;;;;5009148;28;20105;-44
2023/12/14 03:31:58;;;;;;;11.35;6.82;;;4.20;99.90;;;;;;5011147;28;20243;-43
2023/12/14 03:34:24;;;;;;;13.02;8.00;;;4.20;99.90;;;;;;4991210;28;20415;-42
2023/12/14 03:36:50;;;;;;;14.18;9.18;;;4.20;99.90;;;;;;5011602;28;20455;-42
2023/12/14 03:39:18;;;;;;;12.05;8.13;;;4.20;99.90;;;;;;5009208;28;20604;-44
2023/12/14 03:41:45;;;;;;;13.85;8.48;;;4.20;99.90;;;;;;5009120;28;20109;-44
2023/12/14 03:44:10;;;;;;;14.85;9.07;;;4.20;99.90;;;;;;5009104;28;20021;-42
2023/12/14 03:46:36;;;;;;;13.98;8.60;;;4.20;99.90;;;;;;5008673;28;20022;-42
2023/12/14 03:49:02;;;;;;;16.77;9.85;;;4.20;99.90;;;;;;5008330;28;20085;-42
2023/12/14 03:51:28;;;;;;;15.57;10.00;;;4.20;99.90;;;;;;5009072;28;20491;-44
2023/12/14 03:53:54;;;;;;;17.00;10.10;;;4.20;99.90;;;;;;5008827;28;20093;-46
2023/12/14 03:56:19;;;;;;;15.65;9.63;;;4.20;99.90;;;;;;4987905;28;20371;-43
2023/12/14 03:58:45;;;;;;;16.42;10.63;;;4.20;99.90;;;;;;5008687;28;20033;-45
2023/12/14 04:01:21;;;;;;;14.48;9.05;;;4.20;99.90;;;;;;5008379;28;20467;-43
2023/12/14 04:03:47;;;;;;;16.65;10.25;;;4.10;99.90;;;;;;5011910;28;20487;-42
2023/12/14 04:06:13;;;;;;;15.27;10.07;;;4.20;99.90;;;;;;5008508;28;20030;-45
2023/12/14 04:08:40;;;;;;;15.18;9.63;;;4.20;99.90;;;;;;5008930;28;20029;-44
2023/12/14 04:11:06;;;;;;;14.35;9.20;;;4.10;99.90;;;;;;5008525;28;20013;-44
2023/12/14 04:13:31;;;;;;;16.67;10.88;;;4.10;99.90;;;;;;5008604;28;20157;-41
2023/12/14 04:15:57;;;;;;;16.33;11.38;;;4.10;99.90;;;;;;4967107;28;1203501;-45
2023/12/14 04:18:23;;;;;;;20.42;11.93;;;4.10;99.90;;;;;;5009203;28;20043;-43
2023/12/14 04:20:49;;;;;;;17.45;11.02;;;4.10;99.90;;;;;;5009463;28;20030;-44
2023/12/14 04:23:14;;;;;;;18.05;11.40;;;4.10;99.90;;;;;;5009475;28;20045;-44
2023/12/14 04:25:40;;;;;;;22.13;13.73;;;4.10;99.90;;;;;;5008916;28;20502;-42
2023/12/14 04:28:06;;;;;;;19.50;12.70;;;4.10;99.90;;;;;;5009174;28;20046;-43
2023/12/14 04:30:31;;;;;;;21.05;12.38;;;4.10;99.90;;;;;;5009106;28;20442;-41
2023/12/14 04:32:57;;;;;;;18.38;12.10;;;4.10;99.90;;;;;;4991328;28;20058;-46
2023/12/14 04:35:22;;;;;;;18.83;11.75;;;4.10;99.90;;;;;;5008873;28;20423;-44
2023/12/14 04:37:48;;;;;;;16.20;10.60;;;4.00;99.90;;;;;;5007944;28;20462;-45
2023/12/14 04:40:14;;;;;;;18.35;11.32;;;4.10;99.90;;;;;;5008840;28;20034;-44
2023/12/14 04:42:39;;;;;;;19.52;12.32;;;4.10;99.90;;;;;;4990704;28;20029;-43
2023/12/14 04:45:06;;;;;;;19.40;12.07;;;4.10;99.90;;;;;;5011904;28;20037;-45
2023/12/14 04:47:31;;;;;;;18.75;11.88;;;4.10;99.90;;;;;;5009188;28;20018;-46
2023/12/14 04:49:57;;;;;;;21.77;12.88;;;4.10;99.90;;;;;;5008909;28;20101;-43
2023/12/14 04:52:23;;;;;;;20.73;13.45;;;4.10;99.90;;;;;;5008839;28;20017;-44
2023/12/14 04:54:48;;;;;;;21.55;13.05;;;4.10;99.90;;;;;;5008430;28;20022;-45
2023/12/14 04:57:14;;;;;;;19.23;12.18;;;4.10;99.90;;;;;;5008311;28;20032;-45
2023/12/14 04:59:42;;;;;;;20.98;12.20;;;4.10;99.90;;;;;;5008687;28;20038;-43
2023/12/14 05:02:07;;;;;;;19.77;12.65;;;4.10;99.90;;;;;;5008553;28;20424;-43
2023/12/14 05:04:33;;;;;;;18.15;12.15;;;4.10;99.90;;;;;;5008351;28;20033;-46
2023/12/14 05:06:59;;;;;;;20.60;12.73;;;4.10;99.90;;;;;;5008469;28;20024;-45
2023/12/14 05:09:24;;;;;;;18.02;10.85;;;4.00;99.90;;;;;;5008447;28;20295;-43
2023/12/14 05:11:50;;;;;;;15.32;10.40;;;4.00;99.90;;;;;;5008285;28;20053;-44
2023/12/14 05:14:15;;;;;;;15.40;10.13;;;4.00;99.90;;;;;;5007978;28;20097;-43
2023/12/14 05:16:41;;;;;;;19.17;11.82;;;4.00;99.90;;;;;;5008426;28;20327;-42
2023/12/14 05:19:07;;;;;;;16.65;10.85;;;3.90;99.90;;;;;;5008560;28;20444;-44
2023/12/14 05:21:32;;;;;;;16.02;10.73;;;4.00;99.90;;;;;;5008505;28;20026;-42
2023/12/14 05:23:58;;;;;;;14.05;9.27;;;3.90;99.90;;;;;;5008121;28;20021;-42
2023/12/14 05:26:24;;;;;;;17.13;10.90;;;3.90;99.90;;;;;;5008331;28;20396;-43
2023/12/14 05:28:50;;;;;;;16.40;10.35;;;3.90;99.90;;;;;;5008616;28;20014;-43
2023/12/14 05:31:15;;;;;;;15.88;9.55;;;3.90;99.90;;;;;;5008236;28;20022;-46
2023/12/14 05:33:42;;;;;;;17.75;10.27;;;3.90;99.90;;;;;;5008282;28;20203;-46
2023/12/14 05:36:10;;;;;;;16.08;10.02;;;3.80;99.90;;;;;;5008107;28;20022;-44
2023/12/14 05:38:39;;;;;;;15.82;9.35;;;3.80;99.90;;;;;;5008448;28;20387;-46
2023/12/14 05:41:05;;;;;;;14.52;9.85;;;3.90;99.90;;;;;;4994381;28;20439;-42
2023/12/14 05:43:31;;;;;;;15.05;9.73;;;3.80;99.90;;;;;;5008270;28;20041;-42
2023/12/14 05:45:57;;;;;;;16.80;10.18;;;3.80;99.90;;;;;;5008036;28;20018;-44
2023/12/14 05:48:22;;;;;;;15.98;9.90;;;3.90;99.90;;;;;;5008140;28;20026;-42
2023/12/14 05:50:48;;;;;;;15.77;9.85;;;3.90;99.90;;;;;;5016495;28;20030;-43
2023/12/14 05:53:14;;;;;;;15.00;10.13;;;3.90;99.90;;;;;;5007965;28;20045;-45
2023/12/14 05:55:40;;;;;;;18.45;10.38;;;3.90;99.90;;;;;;5007422;28;20021;-44
2023/12/14 05:58:07;;;;;;;16.67;10.38;;;3.90;99.90;;;;;;5007775;28;20022;-43
2023/12/14 06:00:34;;;;;;;19.55;11.98;;;3.90;99.90;;;;;;5007884;28;20026;-42
2023/12/14 06:03:00;;;;;;;21.65;12.88;;;3.90;99.90;;;;;;4994707;28;20296;-43
2023/12/14 06:05:25;;;;;;;19.58;12.10;;;3.90;99.90;;;;;;5007214;28;20097;-43
2023/12/14 06:07:51;;;;;;;23.77;13.70;;;3.90;99.90;;;;;;5007913;28;20042;-43
2023/12/14 06:10:18;;;;;;;22.85;13.00;;;3.90;99.90;;;;;;5007791;28;20073;-45
2023/12/14 06:12:44;;;;;;;20.42;11.68;;;4.00;99.90;;;;;;5008721;28;20033;-43
2023/12/14 06:15:10;;;;;;;20.42;12.70;;;3.90;99.90;;;;;;5010654;28;20032;-43
2023/12/14 06:17:38;;;;;;;23.25;14.13;;;3.90;99.90;;;;;;4994002;28;20022;-43
2023/12/14 06:20:05;;;;;;;23.42;13.15;;;3.90;99.90;;;;;;5011173;28;20108;-43
2023/12/14 06:22:30;;;;;;;24.40;13.95;;;3.90;99.90;;;;;;5011505;28;20531;-43
2023/12/14 06:24:56;;;;;;;35.28;14.68;;;3.90;99.90;;;;;;5010720;28;20082;-43
2023/12/14 06:27:26;;;;;;;25.63;14.40;;;3.90;99.90;;;;;;5011533;28;20077;-47
2023/12/14 06:29:52;;;;;;;23.87;14.20;;;3.90;99.90;;;;;;4995255;28;20037;-41
2023/12/14 06:32:17;;;;;;;18.95;12.57;;;3.90;99.90;;;;;;5011057;28;20026;-44
2023/12/14 06:34:43;;;;;;;21.23;13.23;;;3.90;99.90;;;;;;5010796;28;20355;-42
2023/12/14 06:37:09;;;;;;;21.67;13.15;;;3.90;99.90;;;;;;5010172;28;20026;-43
2023/12/14 06:39:35;;;;;;;21.98;13.13;;;3.90;99.90;;;;;;5010114;28;20026;-43
2023/12/14 06:42:01;;;;;;;21.83;12.68;;;3.80;99.90;;;;;;4996899;28;20026;-42
2023/12/14 06:44:27;;;;;;;21.65;13.20;;;3.80;99.90;;;;;;5010207;28;20029;-41
2023/12/14 06:46:53;;;;;;;23.02;13.93;;;3.80;99.90;;;;;;5014916;28;20092;-42
2023/12/14 06:49:20;;;;;;;21.40;12.90;;;3.80;99.90;;;;;;5008550;28;20032;-42
2023/12/14 06:51:45;;;;;;;20.50;11.93;;;3.80;99.90;;;;;;5010746;28;20026;-43
2023/12/14 06:54:11;;;;;;;26.63;14.35;;;3.80;99.90;;;;;;5010589;28;20030;-42
2023/12/14 06:56:37;;;;;;;23.50;13.82;;;3.80;99.90;;;;;;5010347;28;20491;-42
2023/12/14 06:59:03;;;;;;;23.20;14.13;;;3.80;99.90;;;;;;5010706;28;20509;-42
2023/12/14 07:01:28;;;;;;;24.48;14.25;;;3.90;99.90;;;;;;5010965;28;20038;-44
2023/12/14 07:03:54;;;;;;;25.13;14.60;;;3.90;99.90;;;;;;5010609;28;20034;-42
2023/12/14 07:06:21;;;;;;;25.58;14.32;;;3.90;99.90;;;;;;5010311;28;20017;-44
2023/12/14 07:08:47;;;;;;;23.70;14.18;;;3.90;99.90;;;;;;5010240;28;20156;-43
2023/12/14 07:11:13;;;;;;;23.88;13.20;;;3.90;99.90;;;;;;5010566;28;20387;-42
2023/12/14 07:13:40;;;;;;;19.20;11.93;;;3.90;99.90;;;;;;5010426;28;20077;-43
2023/12/14 07:16:10;;;;;;;18.50;11.88;;;3.90;99.90;;;;;;5009889;28;20034;-44
2023/12/14 07:18:40;;;;;;;16.30;10.38;;;3.90;99.90;;;;;;5010265;28;20045;-46
2023/12/14 07:21:06;;;;;;;;;;;3.90;99.90;;;;;;4996439;28;20049;-44
2023/12/14 07:23:33;;;;;;;16.70;9.48;;;4.00;99.90;;;;;;5009794;28;19906;-46
2023/12/14 07:25:58;;;;;;;16.48;9.75;;;4.00;99.90;;;;;;5009040;28;20041;-46
2023/12/14 07:28:24;;;;;;;14.98;8.82;;;4.00;99.90;;;;;;5010631;28;20050;-44
2023/12/14 07:30:50;;;;;;;12.65;8.13;;;4.00;99.90;;;;;;5015720;28;20064;-46
2023/12/14 07:33:16;;;;;;;12.23;7.82;;;3.90;99.90;;;;;;4992521;28;20061;-44
2023/12/14 07:35:42;;;;;;;13.77;9.07;;;4.00;99.90;;;;;;5009035;28;20373;-44
2023/12/14 07:38:09;;;;;;;16.92;9.73;;;4.00;99.90;;;;;;5009892;28;20125;-44
2023/12/14 07:40:35;;;;;;;15.60;9.80;;;4.00;99.90;;;;;;5009421;28;20439;-42
2023/12/14 07:43:00;;;;;;;13.70;9.05;;;4.00;99.90;;;;;;5009865;28;20121;-42
2023/12/14 07:45:26;;;;;;;19.23;9.57;;;4.00;99.90;;;;;;4990956;28;20503;-47
2023/12/14 07:47:52;;;;;;;16.10;9.90;;;4.00;99.90;;;;;;4990619;28;20491;-47
2023/12/14 07:50:17;;;;;;;13.82;9.15;;;4.00;99.90;;;;;;5009576;28;20030;-42
2023/12/14 07:52:43;;;;;;;13.15;8.52;;;4.00;99.90;;;;;;5009597;28;20073;-43
2023/12/14 07:55:09;;;;;;;15.85;9.70;;;4.10;99.90;;;;;;5018404;28;20046;-43
2023/12/14 07:57:34;;;;;;;16.55;9.88;;;4.10;99.90;;;;;;5009843;28;20022;-43
2023/12/14 08:00:00;;;;;;;15.18;9.55;;;4.00;99.90;;;;;;4997255;28;20067;-42
2023/12/14 08:02:25;;;;;;;13.65;8.93;;;4.00;99.90;;;;;;5009637;28;20034;-42
2023/12/14 08:04:52;;;;;;;15.73;9.88;;;4.10;99.90;;;;;;5009258;28;20510;-43
2023/12/14 08:07:18;;;;;;;16.02;9.60;;;4.10;99.90;;;;;;5014343;28;20017;-45
2023/12/14 08:09:43;;;;;;;16.15;9.73;;;4.10;99.90;;;;;;4990654;28;20026;-42
2023/12/14 08:12:09;;;;;;;14.10;9.32;;;4.10;99.90;;;;;;5008774;28;20018;-41
2023/12/14 08:14:35;;;;;;;15.18;9.00;;;4.10;99.90;;;;;;5008354;28;20168;-43
2023/12/14 08:17:04;;;;;;;17.98;10.48;;;4.10;99.90;;;;;;5008236;28;20049;-43
2023/12/14 08:19:30;;;;;;;18.33;10.50;;;4.10;99.90;;;;;;5013782;28;20053;-43
2023/12/14 08:21:56;;;;;;;17.65;9.98;;;4.10;99.90;;;;;;5008136;28;20029;-42
2023/12/14 08:24:21;;;;;;;17.50;9.55;;;4.10;99.90;;;;;;5008475;28;20026;-43
2023/12/14 08:26:47;;;;;;;14.95;9.00;;;4.10;99.90;;;;;;5008299;28;20463;-43
2023/12/14 08:29:12;;;;;;;22.15;9.95;;;4.10;99.90;;;;;;5008389;28;20073;-42
2023/12/14 08:31:38;;;;;;;15.70;9.52;;;4.10;99.90;;;;;;5008411;28;20033;-44
2023/12/14 08:34:04;;;;;;;16.77;9.18;;;4.00;99.90;;;;;;5008211;28;20073;-43
2023/12/14 08:36:31;;;;;;;15.07;9.52;;;4.10;99.90;;;;;;5007374;28;20026;-45
2023/12/14 08:38:57;;;;;;;18.27;10.15;;;4.10;99.90;;;;;;5007831;28;20033;-45
2023/12/14 08:41:22;;;;;;;16.23;9.48;;;4.10;99.90;;;;;;5008546;28;20026;-45
2023/12/14 08:43:48;;;;;;;15.40;9.38;;;4.20;99.90;;;;;;5008307;28;20349;-43
2023/12/14 08:46:14;;;;;;;14.63;10.35;;;4.10;99.90;;;;;;5007506;28;20045;-43
2023/12/14 08:48:39;;;;;;;14.88;10.45;;;4.10;99.90;;;;;;5013549;28;20092;-42
2023/12/14 08:51:05;;;;;;;17.25;10.18;;;4.10;99.90;;;;;;5008264;28;20025;-41
2023/12/14 08:53:31;;;;;;;16.50;10.13;;;4.20;99.90;;;;;;5014398;28;20018;-42
2023/12/14 08:55:57;;;;;;;17.92;10.65;;;4.20;99.90;;;;;;5007907;28;20085;-41
2023/12/14 08:58:22;;;;;;;14.68;9.80;;;4.10;99.90;;;;;;5008845;28;20470;-41
2023/12/14 09:00:52;;;;;;;18.50;10.13;;;4.20;99.90;;;;;;5008199;28;20058;-41
2023/12/14 09:03:18;;;;;;;13.07;8.35;;;4.20;99.90;;;;;;5008582;28;20065;-41
2023/12/14 09:05:45;;;;;;;14.10;9.02;;;4.20;99.90;;;;;;5007661;28;20053;-42
2023/12/14 09:08:10;;;;;;;12.15;7.97;;;4.20;99.90;;;;;;5007844;28;20105;-41
2023/12/14 09:10:36;;;;;;;14.80;8.65;;;4.20;99.90;;;;;;5007948;28;20144;-41
2023/12/14 09:13:04;;;;;;;13.85;8.40;;;4.20;99.90;;;;;;4989976;28;20022;-42
2023/12/14 09:15:32;;;;;;;12.57;7.60;;;4.20;99.90;;;;;;5007401;28;20051;-41
2023/12/14 09:17:58;;;;;;;14.57;8.77;;;4.20;99.90;;;;;;5008104;28;20034;-42
2023/12/14 09:20:24;;;;;;;14.15;8.52;;;4.20;99.90;;;;;;5008171;28;20502;-41
2023/12/14 09:22:50;;;;;;;15.45;8.07;;;4.20;99.90;;;;;;4990297;28;20018;-42
2023/12/14 09:25:16;;;;;;;14.55;9.10;;;4.20;99.90;;;;;;5007493;28;20032;-41
2023/12/14 09:27:42;;;;;;;13.98;8.90;;;4.30;99.90;;;;;;5007726;28;20058;-42
2023/12/14 09:30:08;;;;;;;12.07;7.65;;;4.30;99.90;;;;;;5007508;28;20018;-43
2023/12/14 09:32:34;;;;;;;11.38;7.15;;;4.30;99.90;;;;;;5007744;28;20030;-42
2023/12/14 09:35:00;;;;;;;11.38;7.00;;;4.30;99.90;;;;;;5007122;28;20040;-43
2023/12/14 09:37:26;;;;;;;12.82;7.75;;;4.30;99.90;;;;;;5007824;28;20345;-44
2023/12/14 09:39:51;;;;;;;10.15;7.05;;;4.30;99.90;;;;;;5007324;28;20487;-42
2023/12/14 09:42:21;;;;;;;12.02;7.32;;;4.30;99.90;;;;;;5007333;28;20018;-43
2023/12/14 09:44:48;;;;;;;13.38;8.45;;;4.30;99.90;;;;;;5006878;28;20022;-43
2023/12/14 09:47:14;;;;;;;14.48;8.38;;;4.30;99.90;;;;;;5007012;28;20018;-42
2023/12/14 09:49:42;;;;;;;15.10;8.38;;;4.30;99.90;;;;;;5008001;28;20028;-42
2023/12/14 09:52:08;;;;;;;12.32;7.60;;;4.30;99.90;;;;;;5014160;28;20029;-43
2023/12/14 09:54:34;;;;;;;10.50;7.20;;;4.30;99.90;;;;;;5005887;28;20034;-42
2023/12/14 09:57:00;;;;;;;11.98;7.10;;;4.30;99.90;;;;;;5005648;28;20101;-41
2023/12/14 09:59:25;;;;;;;14.35;8.60;;;4.30;99.90;;;;;;5006839;28;20126;-42
2023/12/14 10:01:51;;;;;;;13.43;7.95;;;4.30;99.90;;;;;;5001568;28;20029;-42
2023/12/14 10:04:20;;;;;;;12.02;8.23;;;4.40;99.90;;;;;;5005836;28;20022;-42
2023/12/14 10:06:47;;;;;;;14.10;8.75;;;4.40;99.90;;;;;;5006041;28;20576;-43
2023/12/14 10:09:15;;;;;;;13.48;8.30;;;4.40;99.90;;;;;;5006528;28;20073;-42
2023/12/14 10:11:42;;;;;;;12.40;7.82;;;4.30;99.90;;;;;;5007665;28;20022;-43
2023/12/14 10:14:22;;;;;;;11.88;7.95;;;4.40;99.90;;;;;;5014225;28;20036;-42
2023/12/14 10:16:51;;;;;;;14.68;9.10;;;4.40;99.90;;;;;;5007060;28;20088;-46
2023/12/14 10:19:18;;;;;;;15.53;8.33;;;4.40;99.90;;;;;;5007117;28;20445;-45
2023/12/14 10:21:46;;;;;;;13.95;7.95;;;4.40;99.90;;;;;;5006948;28;20026;-45
2023/12/14 10:24:12;;;;;;;13.05;8.05;;;4.40;99.90;;;;;;5006986;28;20025;-46
2023/12/14 10:26:37;;;;;;;17.85;9.52;;;4.50;99.90;;;;;;4988854;28;20109;-43
2023/12/14 10:29:04;;;;;;;14.35;8.23;;;4.50;99.90;;;;;;5007103;28;20038;-44
2023/12/14 10:31:31;;;;;;;15.85;9.85;;;4.50;99.90;;;;;;5006998;28;20033;-43
2023/12/14 10:33:57;;;;;;;17.45;9.32;;;4.50;99.90;;;;;;5006693;28;20030;-43
2023/12/14 10:36:25;;;;;;;15.02;9.27;;;4.50;99.90;;;;;;5006167;28;20030;-43
2023/12/14 10:38:53;;;;;;;12.23;7.82;;;4.50;99.90;;;;;;5005449;28;20022;-45
2023/12/14 10:41:20;;;;;;;15.18;8.55;;;4.50;99.90;;;;;;5007065;28;20029;-43
2023/12/14 10:43:50;;;;;;;12.07;7.65;;;4.50;99.90;;;;;;5007130;28;20053;-42
2023/12/14 10:46:16;;;;;;;14.97;9.17;;;4.50;99.90;;;;;;5009619;28;20071;-43
2023/12/14 10:48:45;;;;;;;17.85;9.95;;;4.50;99.90;;;;;;4993793;28;20327;-43
2023/12/14 10:51:15;;;;;;;16.23;10.07;;;4.40;99.90;;;;;;4996425;28;20029;-43
2023/12/14 10:53:44;;;;;;;17.58;9.25;;;4.50;99.90;;;;;;5007314;28;20044;-43
2023/12/14 10:56:11;;;;;;;19.58;9.80;;;4.50;99.90;;;;;;5013438;28;20026;-42
2023/12/14 10:58:48;;;;;;;15.68;9.50;;;4.50;99.90;;;;;;5007655;28;20037;-43
2023/12/14 11:01:15;;;;;;;16.13;9.45;;;4.50;99.90;;;;;;5016835;28;20033;-42
2023/12/14 11:03:43;;;;;;;16.95;9.50;;;4.50;99.90;;;;;;5011345;28;20526;-46
2023/12/14 11:06:24;;;;;;;18.20;9.48;;;4.50;99.90;;;;;;4990142;28;20581;-47
2023/12/14 11:08:54;;;;;;;;;;;4.60;99.90;;;;;;5010560;28;20101;-46
2023/12/14 11:11:20;;;;;;;17.83;7.97;;;4.60;99.90;;;;;;5003644;28;19999;-44
2023/12/14 11:13:56;;;;;;;11.32;7.10;;;4.60;99.90;;;;;;5009287;28;20030;-45
2023/12/14 11:16:23;;;;;;;15.57;8.20;;;4.60;99.90;;;;;;5002660;28;20025;-45
2023/12/14 11:19:08;;;;;;;13.63;8.50;;;4.60;99.90;;;;;;5010074;28;20033;-45
2023/12/14 11:21:34;;;;;;;14.05;8.75;;;4.60;99.90;;;;;;5004863;28;20030;-43
2023/12/14 11:24:01;;;;;;;18.63;10.45;;;4.60;99.90;;;;;;5010043;28;20037;-43
2023/12/14 11:26:28;;;;;;;16.48;9.48;;;4.60;99.90;;;;;;5009722;28;20026;-44
2023/12/14 11:28:54;;;;;;;17.73;8.93;;;4.50;99.90;;;;;;5008577;28;20073;-45
2023/12/14 11:31:20;;;;;;;16.00;9.52;;;4.50;99.90;;;;;;5005900;28;20491;-43
2023/12/14 11:33:47;;;;;;;19.30;8.48;;;4.50;99.90;;;;;;5012414;28;20050;-44
2023/12/14 11:36:13;;;;;;;15.70;9.07;;;4.50;99.90;;;;;;5008968;28;20399;-44
2023/12/14 11:38:39;;;;;;;15.77;8.60;;;4.50;99.90;;;;;;5007686;28;20162;-43
2023/12/14 11:41:05;;;;;;;17.20;9.45;;;4.50;99.90;;;;;;5007610;28;20049;-44
2023/12/14 11:43:40;;;;;;;20.40;9.85;;;4.50;99.90;;;;;;4991901;28;20036;-43
2023/12/14 11:46:05;;;;;;;22.77;11.88;;;4.50;99.90;;;;;;4993851;28;20334;-46
2023/12/14 11:48:31;;;;;;;18.85;9.88;;;4.50;99.90;;;;;;5009159;28;20218;-43
2023/12/14 11:50:57;;;;;;;19.48;9.55;;;4.50;99.90;;;;;;5008935;28;20061;-44
2023/12/14 11:53:23;;;;;;;18.58;8.68;;;4.50;99.90;;;;;;5009371;28;20034;-43
2023/12/14 11:55:48;;;;;;;21.00;8.93;;;4.50;99.90;;;;;;5008276;28;20070;-45
2023/12/14 11:58:15;;;;;;;15.02;7.35;;;4.50;99.90;;;;;;5007991;28;20116;-45
2023/12/14 12:00:41;;;;;;;14.30;8.30;;;4.50;99.90;;;;;;5010815;28;20084;-45
2023/12/14 12:03:14;;;;;;;14.50;7.95;;;4.50;99.90;;;;;;5016496;28;20061;-43
2023/12/14 12:05:42;;;;;;;14.55;7.25;;;4.50;99.90;;;;;;5016818;28;20014;-44
2023/12/14 12:08:09;;;;;;;13.23;6.82;;;4.50;99.90;;;;;;5018949;28;20049;-44
2023/12/14 12:10:36;;;;;;;14.32;8.80;;;4.40;99.90;;;;;;5018988;28;20029;-46
2023/12/14 12:13:07;;;;;;;20.35;9.95;;;4.50;99.90;;;;;;5017377;28;20022;-46
2023/12/14 12:15:37;;;;;;;17.83;8.98;;;4.40;99.90;;;;;;5015176;28;20439;-44
2023/12/14 12:18:08;;;;;;;15.75;8.52;;;4.40;99.90;;;;;;5019595;28;20013;-44
2023/12/14 12:20:34;;;;;;;16.08;8.40;;;4.40;99.90;;;;;;5004522;28;20532;-44
2023/12/14 12:23:01;;;;;;;13.32;7.75;;;4.40;99.90;;;;;;5011632;28;20061;-44
2023/12/14 12:25:27;;;;;;;16.45;8.65;;;4.40;99.90;;;;;;5023721;28;20543;-46
2023/12/14 12:27:56;;;;;;;16.65;8.18;;;4.40;99.90;;;;;;5008200;28;20101;-46
2023/12/14 12:30:23;;;;;;;18.90;8.82;;;4.40;99.90;;;;;;5008704;28;20225;-44
2023/12/14 12:32:50;;;;;;;17.45;9.57;;;4.40;99.90;;;;;;5008419;28;20105;-42
2023/12/14 12:35:16;;;;;;;19.77;9.52;;;4.40;99.90;;;;;;5007530;28;20439;-44
2023/12/14 12:37:42;;;;;;;23.40;9.05;;;4.40;99.90;;;;;;5008080;28;20025;-44
2023/12/14 12:40:08;;;;;;;16.92;8.65;;;4.40;99.90;;;;;;5008278;28;20110;-44